sensor_id;sensor_type;location;lat;lon;timestamp;pressure;altitude;pressure_sealevel;temperature;humidity
65800;BME280;52544;48.116;11.660;2022-11-14T00:02:09;95711.81;;;3.66;100.00
65800;BME280;52544;48.116;11.660;2022-11-14T00:04:35;95704.78;;;3.67;100.00
65800;BME280;52544;48.116;11.660;2022-11-14T00:07:00;95701.13;;;3.69;100.00
65800;BME280;52544;48.116;11.660;2022-11-14T00:09:27;95700.91;;;3.74;100.00
65800;BME280;52544;48.116;11.660;2022-11-14T00:11:53;95704.88;;;3.65;100.00
65800;BME280;52544;48.116;11.660;2022-11-14T00:14:18;95690.50;;;3.72;100.00
65800;BME280;52544;48.116;11.660;2022-11-14T00:16:44;95679.28;;;3.70;100.00
65800;BME280;52544;48.116;11.660;2022-11-14T00:19:09;95677.00;;;3.64;100.00
65800;BME280;52544;48.116;11.660;2022-11-14T00:21:34;95679.81;;;3.61;100.00
65800;BME280;52544;48.116;11.660;2022-11-14T00:24:00;95683.88;;;3.51;100.00
65800;BME280;52544;48.116;11.660;2022-11-14T00:26:25;95676.00;;;3.51;100.00
65800;BME280;52544;48.116;11.660;2022-11-14T00:28:51;95684.44;;;3.56;100.00
65800;BME280;52544;48.116;11.660;2022-11-14T00:31:16;95692.28;;;3.56;100.00
65800;BME280;52544;48.116;11.660;2022-11-14T00:33:41;95694.50;;;3.48;100.00
65800;BME280;52544;48.116;11.660;2022-11-14T00:36:07;95690.97;;;3.49;100.00
65800;BME280;52544;48.116;11.660;2022-11-14T00:38:32;95688.34;;;3.49;100.00
65800;BME280;52544;48.116;11.660;2022-11-14T00:40:58;95694.34;;;3.51;100.00
65800;BME280;52544;48.116;11.660;2022-11-14T00:43:23;95706.16;;;3.58;100.00
65800;BME280;52544;48.116;11.660;2022-11-14T00:45:48;95709.50;;;3.60;100.00
65800;BME280;52544;48.116;11.660;2022-11-14T00:48:14;95709.34;;;3.63;100.00
65800;BME280;52544;48.116;11.660;2022-11-14T00:50:40;95703.13;;;3.66;100.00
65800;BME280;52544;48.116;11.660;2022-11-14T00:53:06;95700.56;;;3.64;100.00
65800;BME280;52544;48.116;11.660;2022-11-14T00:55:31;95688.41;;;3.63;100.00
65800;BME280;52544;48.116;11.660;2022-11-14T00:57:57;95688.94;;;3.70;100.00
65800;BME280;52544;48.116;11.660;2022-11-14T01:00:22;95679.28;;;3.70;100.00
65800;BME280;52544;48.116;11.660;2022-11-14T01:02:47;95685.38;;;3.55;100.00
65800;BME280;52544;48.116;11.660;2022-11-14T01:05:13;95682.59;;;3.58;100.00
65800;BME280;52544;48.116;11.660;2022-11-14T01:07:38;95678.47;;;3.54;100.00
65800;BME280;52544;48.116;11.660;2022-11-14T01:10:05;95681.09;;;3.54;100.00
65800;BME280;52544;48.116;11.660;2022-11-14T01:12:30;95687.66;;;3.61;100.00
65800;BME280;52544;48.116;11.660;2022-11-14T01:14:56;95694.75;;;3.59;100.00
65800;BME280;52544;48.116;11.660;2022-11-14T01:17:21;95702.75;;;3.56;100.00
65800;BME280;52544;48.116;11.660;2022-11-14T01:19:46;95704.97;;;3.48;100.00
65800;BME280;52544;48.116;11.660;2022-11-14T01:22:12;95699.56;;;3.51;100.00
65800;BME280;52544;48.116;11.660;2022-11-14T01:24:37;95690.13;;;3.48;100.00
65800;BME280;52544;48.116;11.660;2022-11-14T01:27:03;95689.09;;;3.51;100.00
65800;BME280;52544;48.116;11.660;2022-11-14T01:29:29;95697.31;;;3.45;100.00
65800;BME280;52544;48.116;11.660;2022-11-14T01:31:54;95693.69;;;3.32;100.00
65800;BME280;52544;48.116;11.660;2022-11-14T01:34:20;95697.03;;;3.18;100.00
65800;BME280;52544;48.116;11.660;2022-11-14T01:36:45;95689.19;;;3.18;100.00
65800;BME280;52544;48.116;11.660;2022-11-14T01:39:11;95685.56;;;3.20;100.00
65800;BME280;52544;48.116;11.660;2022-11-14T01:41:36;95669.72;;;3.23;100.00
65800;BME280;52544;48.116;11.660;2022-11-14T01:44:01;95659.25;;;3.23;100.00
65800;BME280;52544;48.116;11.660;2022-11-14T01:46:29;95665.06;;;3.29;100.00
65800;BME280;52544;48.116;11.660;2022-11-14T01:53:54;95655.19;;;3.18;100.00
65800;BME280;52544;48.116;11.660;2022-11-14T01:56:26;95668.00;;;3.22;100.00
65800;BME280;52544;48.116;11.660;2022-11-14T01:58:57;95663.38;;;3.28;100.00
65800;BME280;52544;48.116;11.660;2022-11-14T02:01:25;95662.53;;;3.11;100.00
65800;BME280;52544;48.116;11.660;2022-11-14T02:03:53;95660.00;;;3.10;100.00
65800;BME280;52544;48.116;11.660;2022-11-14T02:06:21;95658.66;;;3.03;100.00
65800;BME280;52544;48.116;11.660;2022-11-14T02:08:49;95649.97;;;3.02;100.00
65800;BME280;52544;48.116;11.660;2022-11-14T02:11:15;95660.59;;;2.99;100.00
65800;BME280;52544;48.116;11.660;2022-11-14T02:13:41;95660.84;;;3.10;100.00
65800;BME280;52544;48.116;11.660;2022-11-14T02:16:06;95655.19;;;3.02;100.00
65800;BME280;52544;48.116;11.660;2022-11-14T02:18:32;95646.69;;;2.98;100.00
65800;BME280;52544;48.116;11.660;2022-11-14T02:20:57;95655.69;;;3.09;100.00
65800;BME280;52544;48.116;11.660;2022-11-14T02:23:28;95668.19;;;3.04;100.00
65800;BME280;52544;48.116;11.660;2022-11-14T02:25:54;95666.16;;;3.09;100.00
65800;BME280;52544;48.116;11.660;2022-11-14T02:28:19;95658.91;;;2.98;100.00
65800;BME280;52544;48.116;11.660;2022-11-14T02:30:46;95665.97;;;2.96;100.00
65800;BME280;52544;48.116;11.660;2022-11-14T02:33:11;95657.19;;;2.97;100.00
65800;BME280;52544;48.116;11.660;2022-11-14T02:35:37;95676.13;;;3.02;100.00
65800;BME280;52544;48.116;11.660;2022-11-14T02:38:02;95677.97;;;3.00;100.00
65800;BME280;52544;48.116;11.660;2022-11-14T02:40:28;95667.94;;;3.08;100.00
65800;BME280;52544;48.116;11.660;2022-11-14T02:42:53;95650.41;;;3.10;100.00
65800;BME280;52544;48.116;11.660;2022-11-14T02:45:19;95652.81;;;3.13;100.00
65800;BME280;52544;48.116;11.660;2022-11-14T02:47:45;95652.91;;;3.12;100.00
65800;BME280;52544;48.116;11.660;2022-11-14T02:50:10;95641.78;;;3.08;100.00
65800;BME280;52544;48.116;11.660;2022-11-14T02:52:35;95643.19;;;3.14;100.00
65800;BME280;52544;48.116;11.660;2022-11-14T02:55:01;95628.34;;;3.14;100.00
65800;BME280;52544;48.116;11.660;2022-11-14T02:57:27;95620.44;;;3.16;100.00
65800;BME280;52544;48.116;11.660;2022-11-14T02:59:52;95617.41;;;3.08;100.00
65800;BME280;52544;48.116;11.660;2022-11-14T03:02:18;95613.53;;;3.15;100.00
65800;BME280;52544;48.116;11.660;2022-11-14T03:04:43;95619.09;;;3.09;100.00
65800;BME280;52544;48.116;11.660;2022-11-14T03:07:09;95615.28;;;3.14;100.00
65800;BME280;52544;48.116;11.660;2022-11-14T03:09:34;95621.78;;;3.07;100.00
65800;BME280;52544;48.116;11.660;2022-11-14T03:11:59;95621.84;;;3.06;100.00
65800;BME280;52544;48.116;11.660;2022-11-14T03:14:25;95619.59;;;2.99;100.00
65800;BME280;52544;48.116;11.660;2022-11-14T03:16:50;95629.22;;;2.99;100.00
65800;BME280;52544;48.116;11.660;2022-11-14T03:19:15;95614.88;;;3.06;100.00
65800;BME280;52544;48.116;11.660;2022-11-14T03:21:42;95615.22;;;3.00;100.00
65800;BME280;52544;48.116;11.660;2022-11-14T03:24:07;95608.28;;;2.99;100.00
65800;BME280;52544;48.116;11.660;2022-11-14T03:26:32;95613.38;;;3.02;100.00
65800;BME280;52544;48.116;11.660;2022-11-14T03:28:58;95617.66;;;3.03;100.00
65800;BME280;52544;48.116;11.660;2022-11-14T03:31:23;95619.59;;;2.99;100.00
65800;BME280;52544;48.116;11.660;2022-11-14T03:33:48;95626.34;;;3.04;100.00
65800;BME280;52544;48.116;11.660;2022-11-14T03:36:14;95621.84;;;3.06;100.00
65800;BME280;52544;48.116;11.660;2022-11-14T03:38:39;95626.59;;;2.99;100.00
65800;BME280;52544;48.116;11.660;2022-11-14T03:41:05;95621.22;;;3.02;100.00
65800;BME280;52544;48.116;11.660;2022-11-14T03:43:32;95615.31;;;2.98;100.00
65800;BME280;52544;48.116;11.660;2022-11-14T03:45:59;95614.22;;;3.03;100.00
65800;BME280;52544;48.116;11.660;2022-11-14T03:48:25;95606.94;;;3.08;100.00
65800;BME280;52544;48.116;11.660;2022-11-14T03:50:50;95611.59;;;3.03;100.00
65800;BME280;52544;48.116;11.660;2022-11-14T03:53:16;95626.00;;;3.10;100.00
65800;BME280;52544;48.116;11.660;2022-11-14T03:55:44;95634.72;;;3.10;100.00
65800;BME280;52544;48.116;11.660;2022-11-14T03:58:09;95645.16;;;3.10;100.00
65800;BME280;52544;48.116;11.660;2022-11-14T04:00:34;95633.78;;;3.11;100.00
65800;BME280;52544;48.116;11.660;2022-11-14T04:03:00;95625.66;;;3.16;100.00
65800;BME280;52544;48.116;11.660;2022-11-14T04:05:26;95622.47;;;3.11;100.00
65800;BME280;52544;48.116;11.660;2022-11-14T04:07:51;95642.72;;;3.07;100.00
65800;BME280;52544;48.116;11.660;2022-11-14T04:10:17;95639.31;;;3.05;100.00
65800;BME280;52544;48.116;11.660;2022-11-14T04:12:47;95651.06;;;2.98;100.00
65800;BME280;52544;48.116;11.660;2022-11-14T04:15:13;95636.13;;;3.00;100.00
65800;BME280;52544;48.116;11.660;2022-11-14T04:17:38;95642.28;;;2.99;100.00
65800;BME280;52544;48.116;11.660;2022-11-14T04:20:04;95629.22;;;2.99;100.00
65800;BME280;52544;48.116;11.660;2022-11-14T04:22:30;95626.25;;;3.05;100.00
65800;BME280;52544;48.116;11.660;2022-11-14T04:24:55;95627.78;;;3.09;100.00
65800;BME280;52544;48.116;11.660;2022-11-14T04:27:20;95633.41;;;3.01;100.00
65800;BME280;52544;48.116;11.660;2022-11-14T04:29:46;95626.69;;;2.82;100.00
65800;BME280;52544;48.116;11.660;2022-11-14T04:32:11;95635.44;;;2.96;100.00
65800;BME280;52544;48.116;11.660;2022-11-14T04:34:36;95631.72;;;3.00;100.00
65800;BME280;52544;48.116;11.660;2022-11-14T04:37:02;95639.41;;;2.88;100.00
65800;BME280;52544;48.116;11.660;2022-11-14T04:39:27;95633.59;;;2.83;100.00
65800;BME280;52544;48.116;11.660;2022-11-14T04:41:52;95615.28;;;2.83;100.00
65800;BME280;52544;48.116;11.660;2022-11-14T04:44:18;95624.41;;;2.91;100.00
65800;BME280;52544;48.116;11.660;2022-11-14T04:46:43;95638.47;;;2.89;100.00
65800;BME280;52544;48.116;11.660;2022-11-14T04:49:09;95642.53;;;2.94;100.00
65800;BME280;52544;48.116;11.660;2022-11-14T04:51:34;95645.16;;;2.94;100.00
65800;BME280;52544;48.116;11.660;2022-11-14T04:53:59;95633.34;;;2.87;100.00
65800;BME280;52544;48.116;11.660;2022-11-14T04:56:25;95622.63;;;2.92;100.00
65800;BME280;52544;48.116;11.660;2022-11-14T04:58:50;95626.84;;;2.79;100.00
65800;BME280;52544;48.116;11.660;2022-11-14T05:01:16;95624.66;;;2.87;100.00
65800;BME280;52544;48.116;11.660;2022-11-14T05:03:41;95617.06;;;2.82;100.00
65800;BME280;52544;48.116;11.660;2022-11-14T05:06:08;95608.81;;;2.90;100.00
65800;BME280;52544;48.116;11.660;2022-11-14T05:08:34;95601.88;;;2.89;100.00
65800;BME280;52544;48.116;11.660;2022-11-14T05:10:59;95601.88;;;2.73;100.00
65800;BME280;52544;48.116;11.660;2022-11-14T05:13:24;95594.78;;;2.75;100.00
65800;BME280;52544;48.116;11.660;2022-11-14T05:15:50;95590.09;;;2.82;100.00
65800;BME280;52544;48.116;11.660;2022-11-14T05:18:15;95607.28;;;2.86;100.00
65800;BME280;52544;48.116;11.660;2022-11-14T05:20:41;95606.75;;;2.63;100.00
65800;BME280;52544;48.116;11.660;2022-11-14T05:23:06;95609.84;;;2.54;100.00
65800;BME280;52544;48.116;11.660;2022-11-14T05:25:31;95612.75;;;2.65;100.00
65800;BME280;52544;48.116;11.660;2022-11-14T05:27:57;95599.00;;;2.62;100.00
65800;BME280;52544;48.116;11.660;2022-11-14T05:30:23;95608.09;;;2.55;100.00
65800;BME280;52544;48.116;11.660;2022-11-14T05:32:51;95605.25;;;2.59;100.00
65800;BME280;52544;48.116;11.660;2022-11-14T05:35:16;95614.81;;;2.59;100.00
65800;BME280;52544;48.116;11.660;2022-11-14T05:37:42;95623.34;;;2.62;100.00
65800;BME280;52544;48.116;11.660;2022-11-14T05:40:08;95625.38;;;2.57;100.00
65800;BME280;52544;48.116;11.660;2022-11-14T05:42:33;95627.41;;;2.52;100.00
65800;BME280;52544;48.116;11.660;2022-11-14T05:44:59;95636.31;;;2.48;100.00
65800;BME280;52544;48.116;11.660;2022-11-14T05:47:24;95648.16;;;2.55;100.00
65800;BME280;52544;48.116;11.660;2022-11-14T05:49:49;95650.66;;;2.57;100.00
65800;BME280;52544;48.116;11.660;2022-11-14T05:52:15;95647.13;;;2.58;100.00
65800;BME280;52544;48.116;11.660;2022-11-14T05:54:40;95643.66;;;2.57;100.00
65800;BME280;52544;48.116;11.660;2022-11-14T05:57:05;95649.66;;;2.59;100.00
65800;BME280;52544;48.116;11.660;2022-11-14T05:59:31;95656.28;;;2.49;100.00
65800;BME280;52544;48.116;11.660;2022-11-14T06:01:56;95654.91;;;2.42;100.00
65800;BME280;52544;48.116;11.660;2022-11-14T06:04:22;95658.78;;;2.35;100.00
65800;BME280;52544;48.116;11.660;2022-11-14T06:06:47;95660.25;;;2.23;100.00
65800;BME280;52544;48.116;11.660;2022-11-14T06:09:13;95659.88;;;2.13;100.00
65800;BME280;52544;48.116;11.660;2022-11-14T06:11:38;95665.88;;;1.98;100.00
65800;BME280;52544;48.116;11.660;2022-11-14T06:14:04;95680.78;;;1.96;100.00
65800;BME280;52544;48.116;11.660;2022-11-14T06:16:29;95672.63;;;2.02;100.00
65800;BME280;52544;48.116;11.660;2022-11-14T06:18:54;95674.47;;;2.00;100.00
65800;BME280;52544;48.116;11.660;2022-11-14T06:21:22;95666.09;;;1.93;100.00
65800;BME280;52544;48.116;11.660;2022-11-14T06:23:48;95672.53;;;2.04;100.00
65800;BME280;52544;48.116;11.660;2022-11-14T06:26:20;95671.41;;;1.92;100.00
65800;BME280;52544;48.116;11.660;2022-11-14T06:28:46;95676.31;;;1.81;100.00
65800;BME280;52544;48.116;11.660;2022-11-14T06:31:13;95670.47;;;1.93;100.00
65800;BME280;52544;48.116;11.660;2022-11-14T06:33:39;95671.94;;;1.98;100.00
65800;BME280;52544;48.116;11.660;2022-11-14T06:36:05;95667.63;;;1.97;100.00
65800;BME280;52544;48.116;11.660;2022-11-14T06:38:33;95670.63;;;2.07;100.00
65800;BME280;52544;48.116;11.660;2022-11-14T06:41:01;95677.47;;;2.10;100.00
65800;BME280;52544;48.116;11.660;2022-11-14T06:43:27;95670.09;;;2.18;100.00
65800;BME280;52544;48.116;11.660;2022-11-14T06:45:53;95670.59;;;2.24;100.00
65800;BME280;52544;48.116;11.660;2022-11-14T06:48:19;95670.38;;;2.29;100.00
65800;BME280;52544;48.116;11.660;2022-11-14T06:50:50;95671.25;;;2.30;100.00
65800;BME280;52544;48.116;11.660;2022-11-14T06:53:16;95675.44;;;2.32;100.00
65800;BME280;52544;48.116;11.660;2022-11-14T06:55:41;95671.53;;;2.23;100.00
65800;BME280;52544;48.116;11.660;2022-11-14T06:58:07;95670.94;;;2.18;100.00
65800;BME280;52544;48.116;11.660;2022-11-14T07:00:32;95669.25;;;2.17;100.00
65800;BME280;52544;48.116;11.660;2022-11-14T07:02:57;95668.78;;;2.09;100.00
65800;BME280;52544;48.116;11.660;2022-11-14T07:05:23;95664.47;;;2.25;100.00
65800;BME280;52544;48.116;11.660;2022-11-14T07:07:48;95676.69;;;2.42;100.00
65800;BME280;52544;48.116;11.660;2022-11-14T07:10:14;95658.66;;;2.54;100.00
65800;BME280;52544;48.116;11.660;2022-11-14T07:12:39;95662.59;;;2.45;100.00
65800;BME280;52544;48.116;11.660;2022-11-14T07:15:05;95660.50;;;2.52;100.00
65800;BME280;52544;48.116;11.660;2022-11-14T07:17:33;95663.97;;;2.52;100.00
65800;BME280;52544;48.116;11.660;2022-11-14T07:20:00;95670.38;;;2.62;100.00
65800;BME280;52544;48.116;11.660;2022-11-14T07:22:25;95676.22;;;2.67;100.00
65800;BME280;52544;48.116;11.660;2022-11-14T07:24:51;95665.84;;;2.66;100.00
65800;BME280;52544;48.116;11.660;2022-11-14T07:27:16;95666.84;;;2.63;100.00
65800;BME280;52544;48.116;11.660;2022-11-14T07:29:41;95670.88;;;2.53;100.00
65800;BME280;52544;48.116;11.660;2022-11-14T07:32:07;95688.16;;;2.56;100.00
65800;BME280;52544;48.116;11.660;2022-11-14T07:34:32;95683.28;;;2.65;100.00
65800;BME280;52544;48.116;11.660;2022-11-14T07:36:58;95683.28;;;2.65;100.00
65800;BME280;52544;48.116;11.660;2022-11-14T07:39:23;95680.09;;;2.76;100.00
65800;BME280;52544;48.116;11.660;2022-11-14T07:41:48;95673.03;;;2.78;100.00
65800;BME280;52544;48.116;11.660;2022-11-14T07:44:14;95679.78;;;2.82;100.00
65800;BME280;52544;48.116;11.660;2022-11-14T07:46:39;95672.88;;;2.81;100.00
65800;BME280;52544;48.116;11.660;2022-11-14T07:49:05;95678.13;;;2.97;100.00
65800;BME280;52544;48.116;11.660;2022-11-14T07:51:30;95667.34;;;3.03;100.00
65800;BME280;52544;48.116;11.660;2022-11-14T07:53:55;95655.19;;;3.18;100.00
65800;BME280;52544;48.116;11.660;2022-11-14T07:56:21;95652.94;;;3.28;100.00
65800;BME280;52544;48.116;11.660;2022-11-14T07:58:46;95654.25;;;3.35;100.00
65800;BME280;52544;48.116;11.660;2022-11-14T08:01:12;95649.44;;;3.27;100.00
65800;BME280;52544;48.116;11.660;2022-11-14T08:03:38;95639.75;;;3.45;100.00
65800;BME280;52544;48.116;11.660;2022-11-14T08:06:09;95647.22;;;3.51;100.00
65800;BME280;52544;48.116;11.660;2022-11-14T08:08:36;95646.91;;;3.57;100.00
65800;BME280;52544;48.116;11.660;2022-11-14T08:11:02;95645.44;;;3.67;100.00
65800;BME280;52544;48.116;11.660;2022-11-14T08:13:28;95638.56;;;3.81;100.00
65800;BME280;52544;48.116;11.660;2022-11-14T08:15:54;95635.81;;;3.98;100.00
65800;BME280;52544;48.116;11.660;2022-11-14T08:18:20;95627.00;;;3.99;100.00
65800;BME280;52544;48.116;11.660;2022-11-14T08:20:45;95616.09;;;4.07;100.00
65800;BME280;52544;48.116;11.660;2022-11-14T08:23:12;95616.41;;;4.31;100.00
65800;BME280;52544;48.116;11.660;2022-11-14T08:25:38;95616.22;;;4.48;100.00
65800;BME280;52544;48.116;11.660;2022-11-14T08:28:03;95631.88;;;4.64;100.00
65800;BME280;52544;48.116;11.660;2022-11-14T08:30:29;95640.19;;;4.70;100.00
65800;BME280;52544;48.116;11.660;2022-11-14T08:32:55;95616.97;;;4.79;100.00
65800;BME280;52544;48.116;11.660;2022-11-14T08:35:20;95628.94;;;4.83;100.00
65800;BME280;52544;48.116;11.660;2022-11-14T08:37:46;95626.13;;;5.00;100.00
65800;BME280;52544;48.116;11.660;2022-11-14T08:40:11;95625.16;;;5.15;100.00
65800;BME280;52544;48.116;11.660;2022-11-14T08:42:37;95629.22;;;5.34;100.00
65800;BME280;52544;48.116;11.660;2022-11-14T08:45:03;95628.25;;;5.49;100.00
65800;BME280;52544;48.116;11.660;2022-11-14T08:47:29;95632.91;;;5.58;100.00
65800;BME280;52544;48.116;11.660;2022-11-14T08:49:54;95628.13;;;5.77;100.00
65800;BME280;52544;48.116;11.660;2022-11-14T08:52:20;95625.22;;;5.82;100.00
65800;BME280;52544;48.116;11.660;2022-11-14T08:54:45;95612.44;;;6.03;100.00
65800;BME280;52544;48.116;11.660;2022-11-14T08:57:11;95608.97;;;6.03;100.00
65800;BME280;52544;48.116;11.660;2022-11-14T08:59:39;95595.47;;;6.21;100.00
65800;BME280;52544;48.116;11.660;2022-11-14T09:02:05;95597.78;;;6.39;100.00
65800;BME280;52544;48.116;11.660;2022-11-14T09:04:30;95598.19;;;6.58;100.00
65800;BME280;52544;48.116;11.660;2022-11-14T09:06:56;95599.44;;;6.65;99.88
65800;BME280;52544;48.116;11.660;2022-11-14T09:09:23;95604.06;;;6.62;99.56
65800;BME280;52544;48.116;11.660;2022-11-14T09:11:48;95607.13;;;6.81;98.46
65800;BME280;52544;48.116;11.660;2022-11-14T09:14:14;95608.91;;;6.81;98.22
65800;BME280;52544;48.116;11.660;2022-11-14T09:16:39;95606.59;;;6.89;98.29
65800;BME280;52544;48.116;11.660;2022-11-14T09:19:04;95599.56;;;7.13;98.05
65800;BME280;52544;48.116;11.660;2022-11-14T09:21:30;95602.94;;;7.15;96.72
65800;BME280;52544;48.116;11.660;2022-11-14T09:23:55;95602.28;;;7.24;98.96
65800;BME280;52544;48.116;11.660;2022-11-14T09:26:21;95596.00;;;7.38;97.84
65800;BME280;52544;48.116;11.660;2022-11-14T09:28:46;95598.25;;;7.56;94.64
65800;BME280;52544;48.116;11.660;2022-11-14T09:31:12;95602.75;;;7.66;94.48
65800;BME280;52544;48.116;11.660;2022-11-14T09:33:38;95607.03;;;7.91;94.05
65800;BME280;52544;48.116;11.660;2022-11-14T09:36:05;95603.91;;;8.21;92.64
65800;BME280;52544;48.116;11.660;2022-11-14T09:38:32;95600.00;;;8.38;91.20
65800;BME280;52544;48.116;11.660;2022-11-14T09:41:03;95601.13;;;8.81;89.46
65800;BME280;52544;48.116;11.660;2022-11-14T09:46:33;95606.97;;;9.40;83.45
65800;BME280;52544;48.116;11.660;2022-11-14T09:49:02;95602.75;;;9.81;83.70
65800;BME280;52544;48.116;11.660;2022-11-14T09:51:33;95625.16;;;9.98;82.75
65800;BME280;52544;48.116;11.660;2022-11-14T09:54:14;95613.22;;;10.36;83.08
65800;BME280;52544;48.116;11.660;2022-11-14T09:56:41;95611.28;;;10.80;80.51
65800;BME280;52544;48.116;11.660;2022-11-14T09:59:13;95604.84;;;11.13;78.13
65800;BME280;52544;48.116;11.660;2022-11-14T10:02:04;95599.69;;;11.11;76.11
65800;BME280;52544;48.116;11.660;2022-11-14T10:07:45;95616.00;;;11.57;74.72
65800;BME280;52544;48.116;11.660;2022-11-14T10:16:17;95607.59;;;12.11;73.30
65800;BME280;52544;48.116;11.660;2022-11-14T10:18:53;95611.28;;;11.80;73.30
65800;BME280;52544;48.116;11.660;2022-11-14T10:21:41;95608.25;;;12.23;72.73
65800;BME280;52544;48.116;11.660;2022-11-14T10:24:19;95602.06;;;12.61;70.73
65800;BME280;52544;48.116;11.660;2022-11-14T10:27:00;95601.25;;;12.51;70.96
65800;BME280;52544;48.116;11.660;2022-11-14T10:29:57;95597.38;;;12.45;69.02
65800;BME280;52544;48.116;11.660;2022-11-14T10:35:03;95598.19;;;12.56;70.17
65800;BME280;52544;48.116;11.660;2022-11-14T10:38:13;95606.75;;;12.87;67.65
65800;BME280;52544;48.116;11.660;2022-11-14T10:40:45;95599.63;;;12.97;65.65
65800;BME280;52544;48.116;11.660;2022-11-14T10:43:19;95600.78;;;13.22;66.22
65800;BME280;52544;48.116;11.660;2022-11-14T10:45:53;95598.81;;;13.24;66.13
65800;BME280;52544;48.116;11.660;2022-11-14T10:48:34;95593.16;;;13.37;64.60
65800;BME280;52544;48.116;11.660;2022-11-14T10:51:05;95598.44;;;13.09;65.08
65800;BME280;52544;48.116;11.660;2022-11-14T10:53:52;95610.72;;;13.30;66.24
65800;BME280;52544;48.116;11.660;2022-11-14T10:56:19;95606.34;;;13.29;67.63
65800;BME280;52544;48.116;11.660;2022-11-14T10:58:45;95615.19;;;13.57;64.03
65800;BME280;52544;48.116;11.660;2022-11-14T11:03:57;95630.88;;;13.50;66.27
65800;BME280;52544;48.116;11.660;2022-11-14T11:06:27;95629.59;;;13.27;67.61
65800;BME280;52544;48.116;11.660;2022-11-14T11:08:53;95621.41;;;13.38;67.28
65800;BME280;52544;48.116;11.660;2022-11-14T11:11:39;95626.50;;;13.31;67.26
65800;BME280;52544;48.116;11.660;2022-11-14T11:14:15;95621.63;;;13.54;67.24
65800;BME280;52544;48.116;11.660;2022-11-14T11:16:41;95617.53;;;13.32;68.30
65800;BME280;52544;48.116;11.660;2022-11-14T11:19:27;95632.28;;;13.17;68.58
65800;BME280;52544;48.116;11.660;2022-11-14T11:21:55;95624.28;;;13.27;67.04
65800;BME280;52544;48.116;11.660;2022-11-14T11:29:45;95631.41;;;13.16;70.36
65800;BME280;52544;48.116;11.660;2022-11-14T11:32:10;95638.88;;;13.03;71.07
65800;BME280;52544;48.116;11.660;2022-11-14T11:34:36;95636.44;;;13.19;71.66
65800;BME280;52544;48.116;11.660;2022-11-14T11:37:27;95642.19;;;13.24;71.19
65800;BME280;52544;48.116;11.660;2022-11-14T11:39:55;95638.59;;;13.06;69.92
65800;BME280;52544;48.116;11.660;2022-11-14T11:45:22;95648.19;;;12.60;73.37
65800;BME280;52544;48.116;11.660;2022-11-14T11:48:00;95649.75;;;12.53;73.64
65800;BME280;52544;48.116;11.660;2022-11-14T11:50:28;95645.81;;;12.47;74.09
65800;BME280;52544;48.116;11.660;2022-11-14T11:53:06;95649.44;;;12.56;74.30
65800;BME280;52544;48.116;11.660;2022-11-14T11:55:41;95659.34;;;12.73;71.40
65800;BME280;52544;48.116;11.660;2022-11-14T12:00:33;95668.03;;;12.75;71.10
65800;BME280;52544;48.116;11.660;2022-11-14T12:02:59;95671.94;;;12.52;71.37
65800;BME280;52544;48.116;11.660;2022-11-14T12:08:03;95660.78;;;12.58;70.89
65800;BME280;52544;48.116;11.660;2022-11-14T12:10:33;95666.22;;;12.66;70.23
65800;BME280;52544;48.116;11.660;2022-11-14T12:16:29;95663.16;;;12.32;73.54
65800;BME280;52544;48.116;11.660;2022-11-14T12:19:09;95665.25;;;12.48;70.55
65800;BME280;52544;48.116;11.660;2022-11-14T12:21:37;95668.03;;;12.66;69.06
65800;BME280;52544;48.116;11.660;2022-11-14T12:24:25;95668.88;;;12.66;67.99
65800;BME280;52544;48.116;11.660;2022-11-14T12:32:05;95687.84;;;12.81;67.35
65800;BME280;52544;48.116;11.660;2022-11-14T12:34:39;95673.16;;;12.96;67.22
65800;BME280;52544;48.116;11.660;2022-11-14T12:37:31;95679.38;;;13.24;66.01
65800;BME280;52544;48.116;11.660;2022-11-14T12:40:04;95685.31;;;13.46;65.64
65800;BME280;52544;48.116;11.660;2022-11-14T12:42:30;95685.63;;;13.70;65.76
65800;BME280;52544;48.116;11.660;2022-11-14T12:44:56;95683.38;;;13.75;64.72
65800;BME280;52544;48.116;11.660;2022-11-14T12:47:26;95687.06;;;13.65;63.17
65800;BME280;52544;48.116;11.660;2022-11-14T12:52:40;95690.41;;;13.94;62.27
65800;BME280;52544;48.116;11.660;2022-11-14T12:58:11;95686.78;;;14.13;57.25
65800;BME280;52544;48.116;11.660;2022-11-14T13:06:18;95690.81;;;14.35;58.05
65800;BME280;52544;48.116;11.660;2022-11-14T13:09:09;95688.56;;;14.40;57.42
65800;BME280;52544;48.116;11.660;2022-11-14T13:11:41;95688.88;;;14.37;59.37
65800;BME280;52544;48.116;11.660;2022-11-14T13:14:26;95692.66;;;14.17;58.59
65800;BME280;52544;48.116;11.660;2022-11-14T13:17:24;95684.38;;;14.38;57.93
65800;BME280;52544;48.116;11.660;2022-11-14T13:20:27;95674.34;;;14.32;55.61
65800;BME280;52544;48.116;11.660;2022-11-14T13:28:50;95694.75;;;13.21;61.41
65800;BME280;52544;48.116;11.660;2022-11-14T13:34:00;95688.56;;;12.73;64.21
65800;BME280;52544;48.116;11.660;2022-11-14T13:36:53;95688.72;;;12.43;67.36
65800;BME280;52544;48.116;11.660;2022-11-14T13:39:38;95691.78;;;12.29;67.58
65800;BME280;52544;48.116;11.660;2022-11-14T13:50:08;95689.53;;;11.95;71.51
65800;BME280;52544;48.116;11.660;2022-11-14T13:52:41;95694.19;;;11.82;71.79
65800;BME280;52544;48.116;11.660;2022-11-14T13:55:18;95683.88;;;11.79;73.46
65800;BME280;52544;48.116;11.660;2022-11-14T13:57:55;95686.09;;;11.73;75.58
65800;BME280;52544;48.116;11.660;2022-11-14T14:00:24;95690.91;;;11.59;76.83
65800;BME280;52544;48.116;11.660;2022-11-14T14:03:06;95684.50;;;11.61;75.73
65800;BME280;52544;48.116;11.660;2022-11-14T14:28:09;95680.38;;;11.38;78.09
65800;BME280;52544;48.116;11.660;2022-11-14T14:30:35;95678.41;;;11.30;78.56